createdAt,value
2022-08-03T00:02:50.438Z,75.50
2022-08-03T00:06:04.120Z,74.63
2022-08-03T00:09:10.015Z,75.17
2022-08-03T00:12:14.251Z,75.21
2022-08-03T00:15:18.759Z,75.86
2022-08-03T00:18:23.095Z,75.70
2022-08-03T00:21:27.335Z,76.12
2022-08-03T00:24:31.411Z,76.14
2022-08-03T00:27:35.477Z,76.09
2022-08-03T00:30:39.810Z,76.27
2022-08-03T00:33:58.905Z,76.26
2022-08-03T00:37:07.185Z,76.44
2022-08-03T00:40:13.972Z,76.56
2022-08-03T00:43:18.296Z,76.22
2022-08-03T00:46:22.155Z,76.43
2022-08-03T00:49:26.229Z,76.99
2022-08-03T00:52:30.147Z,76.67
2022-08-03T00:55:36.005Z,76.30
2022-08-03T00:58:40.132Z,76.24
2022-08-03T01:01:44.286Z,76.60
2022-08-03T01:04:48.332Z,76.11
2022-08-03T01:08:07.861Z,76.81
2022-08-03T01:11:19.256Z,76.37
2022-08-03T01:14:32.533Z,76.09
2022-08-03T01:17:45.088Z,76.19
2022-08-03T01:20:58.231Z,76.20
2022-08-03T01:24:23.574Z,76.19
2022-08-03T01:27:42.255Z,76.04
2022-08-03T01:30:47.839Z,75.87
2022-08-03T01:33:59.218Z,75.95
2022-08-03T01:37:08.019Z,75.80
2022-08-03T01:40:14.526Z,75.39
2022-08-03T01:43:58.986Z,75.92
2022-08-03T01:46:50.782Z,75.85
2022-08-03T01:49:57.700Z,76.10
2022-08-03T01:53:03.133Z,75.77
2022-08-03T01:56:08.648Z,76.04
2022-08-03T01:59:14.993Z,75.60
2022-08-03T02:02:33.608Z,75.53
2022-08-03T02:05:41.131Z,75.48
2022-08-03T02:08:47.558Z,75.23
2022-08-03T02:11:53.188Z,75.71
2022-08-03T02:14:59.936Z,75.31
2022-08-03T02:18:09.948Z,75.40
2022-08-03T02:21:55.950Z,75.16
2022-08-03T02:24:40.112Z,75.34
2022-08-03T02:27:51.454Z,74.99
2022-08-03T02:30:57.083Z,74.88
2022-08-03T02:34:03.617Z,75.28
2022-08-03T02:37:10.226Z,75.20
2022-08-03T02:40:20.876Z,74.79
2022-08-03T02:43:26.458Z,74.67
2022-08-03T02:46:34.038Z,74.80
2022-08-03T02:49:51.675Z,74.58
2022-08-03T02:52:58.593Z,74.80
2022-08-03T02:56:04.625Z,74.96
2022-08-03T02:59:10.458Z,74.47
2022-08-03T03:02:17.232Z,75.29
2022-08-03T03:05:55.015Z,74.59
2022-08-03T03:08:51.662Z,74.56
2022-08-03T03:11:56.743Z,74.80
2022-08-03T03:15:00.731Z,74.74
2022-08-03T03:18:05.800Z,75.26
2022-08-03T03:21:11.304Z,74.88
2022-08-03T03:24:16.324Z,75.34
2022-08-03T03:27:20.840Z,75.11
2022-08-03T03:30:25.491Z,74.92
2022-08-03T03:33:29.703Z,74.83
2022-08-03T03:36:33.896Z,75.26
2022-08-03T03:39:37.725Z,75.40
2022-08-03T03:42:42.831Z,75.66
2022-08-03T03:45:47.577Z,75.35
2022-08-03T03:48:51.607Z,75.43
2022-08-03T03:51:56.336Z,75.74
2022-08-03T03:55:01.201Z,75.42
2022-08-03T03:58:06.071Z,75.74
2022-08-03T04:01:10.392Z,75.09
2022-08-03T04:04:32.709Z,75.30
2022-08-03T04:08:04.724Z,74.95
2022-08-03T04:11:14.858Z,74.77
2022-08-03T04:14:22.777Z,74.39
2022-08-03T04:17:29.185Z,74.29
2022-08-03T04:20:35.347Z,74.22
2022-08-03T04:23:44.570Z,73.52
2022-08-03T04:26:52.782Z,73.40
2022-08-03T04:29:59.641Z,72.74
2022-08-03T04:33:03.589Z,72.50
2022-08-03T04:36:12.551Z,71.66
2022-08-03T04:39:23.847Z,70.54
2022-08-03T04:42:28.368Z,69.86
2022-08-03T04:45:35.856Z,69.54
2022-08-03T04:48:44.595Z,68.69
2022-08-03T04:51:49.419Z,67.71
2022-08-03T04:54:53.389Z,67.33
2022-08-03T04:57:57.518Z,66.83
2022-08-03T05:01:01.851Z,66.08
2022-08-03T05:04:05.797Z,64.37
2022-08-03T05:07:12.433Z,64.30
2022-08-03T05:10:17.145Z,63.74
2022-08-03T05:13:21.763Z,62.72
2022-08-03T05:16:26.305Z,62.46
2022-08-03T05:19:30.397Z,61.88
2022-08-03T05:22:34.222Z,60.71
2022-08-03T05:25:38.631Z,59.98
2022-08-03T05:28:50.850Z,59.03
2022-08-03T05:31:55.421Z,58.17
2022-08-03T05:35:00.411Z,57.82
2022-08-03T05:38:33.185Z,57.92
2022-08-03T05:41:39.760Z,57.64
2022-08-03T05:44:43.726Z,56.04
2022-08-03T05:47:50.540Z,54.74
2022-08-03T05:50:54.496Z,53.41
2022-08-03T05:53:58.412Z,51.54
2022-08-03T05:57:02.636Z,49.99
2022-08-03T06:00:09.893Z,48.26
2022-08-03T06:03:16.468Z,48.22
2022-08-03T06:06:24.070Z,47.44
2022-08-03T06:10:33.196Z,46.41
2022-08-03T06:12:53.605Z,45.88
2022-08-03T06:15:57.696Z,45.27
2022-08-03T06:19:01.472Z,44.49
2022-08-03T06:22:05.362Z,44.48
2022-08-03T06:25:12.955Z,44.51
2022-08-03T06:28:51.178Z,44.10
2022-08-03T06:31:42.371Z,44.09
2022-08-03T06:34:46.347Z,44.89
2022-08-03T06:37:51.359Z,45.23
2022-08-03T06:40:55.268Z,44.95
2022-08-03T06:44:03.486Z,45.67
2022-08-03T06:47:08.140Z,46.02
2022-08-03T06:50:16.974Z,46.39
2022-08-03T06:53:22.135Z,45.89
2022-08-03T06:56:25.896Z,46.21
2022-08-03T07:00:09.904Z,44.86
2022-08-03T07:02:58.048Z,44.76
2022-08-03T07:06:03.495Z,43.83
2022-08-03T07:09:07.566Z,43.74
2022-08-03T07:12:11.935Z,43.20
2022-08-03T07:15:20.554Z,42.70
2022-08-03T07:18:42.105Z,42.34
2022-08-03T07:21:46.787Z,42.09
2022-08-03T07:24:50.791Z,41.93
2022-08-03T07:27:54.697Z,41.03
2022-08-03T07:31:00.309Z,41.15
2022-08-03T07:34:04.447Z,41.20
2022-08-03T07:37:09.667Z,40.74
2022-08-03T07:40:13.651Z,40.54
2022-08-03T07:43:18.116Z,40.58
2022-08-03T07:46:22.239Z,39.84
2022-08-03T07:49:30.891Z,39.74
2022-08-03T07:52:49.575Z,39.71
2022-08-03T07:55:53.943Z,39.31
2022-08-03T07:59:02.485Z,39.17
2022-08-03T08:02:07.316Z,39.42
2022-08-03T08:05:11.979Z,38.82
2022-08-03T08:08:16.304Z,38.30
2022-08-03T08:11:24.349Z,37.48
2022-08-03T08:14:27.252Z,37.44
2022-08-03T08:17:31.130Z,37.46
2022-08-03T08:20:38.035Z,37.36
2022-08-03T08:23:44.878Z,37.40
2022-08-03T08:26:50.890Z,36.46
2022-08-03T08:30:00.563Z,36.39
2022-08-03T08:33:22.340Z,36.46
2022-08-03T08:36:27.796Z,35.63
2022-08-03T08:39:32.008Z,35.17
2022-08-03T08:42:40.262Z,35.37
2022-08-03T08:45:49.340Z,35.14
2022-08-03T08:48:54.622Z,34.25
2022-08-03T08:52:01.158Z,33.63
2022-08-03T08:55:09.559Z,32.65
2022-08-03T08:58:20.790Z,32.44
2022-08-03T09:01:28.087Z,32.43
2022-08-03T09:04:32.257Z,32.23
2022-08-03T09:07:36.905Z,32.15
2022-08-03T09:10:43.762Z,31.99
2022-08-03T09:13:48.048Z,32.08
2022-08-03T09:17:00.398Z,31.78
2022-08-03T09:20:09.381Z,31.84
2022-08-03T09:23:59.732Z,31.04
2022-08-03T09:26:38.399Z,30.97
2022-08-03T09:29:47.845Z,31.30
2022-08-03T09:32:59.856Z,30.79
2022-08-03T09:36:04.395Z,30.91
2022-08-03T09:39:10.964Z,30.88
2022-08-03T09:42:17.139Z,31.12
2022-08-03T09:45:27.762Z,30.86
2022-08-03T09:48:34.297Z,30.47
2022-08-03T09:52:39.324Z,30.13
2022-08-03T09:55:07.664Z,30.01
2022-08-03T09:58:32.477Z,30.27
2022-08-03T10:01:38.222Z,30.24
2022-08-03T10:04:51.978Z,29.80
2022-08-03T10:07:56.231Z,30.54
2022-08-03T10:11:00.176Z,30.39
2022-08-03T10:14:06.637Z,29.82
2022-08-03T10:17:15.444Z,29.70
2022-08-03T10:20:20.008Z,28.44
2022-08-03T10:23:26.183Z,27.22
2022-08-03T10:26:33.086Z,27.17
2022-08-03T10:29:42.910Z,26.96
2022-08-03T10:32:52.498Z,27.41
2022-08-03T10:35:59.325Z,27.65
2022-08-03T10:39:04.203Z,27.88
2022-08-03T10:42:27.140Z,28.39
2022-08-03T10:45:34.264Z,27.72
2022-08-03T10:48:39.525Z,25.41
2022-08-03T10:51:44.604Z,24.46
2022-08-03T10:55:10.962Z,23.92
2022-08-03T10:58:15.459Z,23.28
2022-08-03T11:02:00.338Z,23.23
2022-08-03T11:05:36.052Z,22.58
2022-08-03T11:08:40.956Z,23.90
2022-08-03T11:11:48.558Z,23.33
2022-08-03T11:14:55.052Z,23.18
2022-08-03T11:18:11.200Z,22.83
2022-08-03T11:21:15.636Z,22.06
2022-08-03T11:24:53.435Z,21.81
2022-08-03T11:28:26.802Z,21.77
2022-08-03T11:31:50.130Z,21.56
2022-08-03T11:35:10.445Z,20.84
2022-08-03T11:38:14.380Z,21.87
2022-08-03T11:41:44.936Z,21.79
2022-08-03T11:44:50.301Z,22.04
2022-08-03T11:47:55.766Z,21.93
2022-08-03T12:01:35.912Z,21.66
2022-08-03T12:04:58.364Z,21.68
2022-08-03T12:08:09.266Z,21.76
2022-08-03T12:11:21.989Z,21.95
2022-08-03T12:14:50.665Z,21.78
2022-08-03T12:18:03.018Z,21.30
2022-08-03T12:21:12.206Z,21.35
2022-08-03T12:24:20.379Z,21.33
2022-08-03T12:27:30.381Z,21.48
2022-08-03T12:30:38.036Z,21.48
2022-08-03T12:34:07.329Z,21.27
2022-08-03T12:37:28.996Z,21.12
2022-08-03T12:40:36.673Z,20.62
2022-08-03T12:43:50.377Z,20.73
2022-08-03T12:47:00.600Z,20.86
2022-08-03T12:50:08.714Z,20.36
2022-08-03T12:53:29.643Z,20.33
2022-08-03T12:56:39.482Z,20.23
2022-08-03T12:59:53.621Z,21.00
2022-08-03T13:06:35.978Z,21.20
2022-08-03T13:09:48.909Z,20.90
2022-08-03T13:12:58.662Z,20.27
2022-08-03T13:16:07.266Z,21.05
2022-08-03T13:19:15.471Z,21.12
2022-08-03T13:22:25.785Z,21.29
2022-08-03T13:25:34.238Z,20.39
2022-08-03T13:28:39.910Z,20.56
2022-08-03T13:31:50.490Z,20.72
2022-08-03T13:34:59.136Z,21.02
2022-08-03T13:38:06.439Z,20.71
2022-08-03T13:41:16.378Z,19.81
2022-08-03T13:44:29.713Z,20.12
2022-08-03T13:47:37.946Z,19.87
2022-08-03T13:50:45.300Z,20.40
2022-08-03T13:53:55.357Z,20.45
2022-08-03T13:58:02.399Z,19.98
2022-08-03T14:00:30.070Z,19.91
2022-08-03T14:03:37.550Z,19.26
2022-08-03T14:06:49.444Z,19.46
2022-08-03T14:09:58.184Z,19.54
2022-08-03T14:13:08.160Z,19.68
2022-08-03T14:16:16.867Z,19.46
2022-08-03T14:19:24.906Z,19.13
2022-08-03T14:22:33.186Z,19.19
2022-08-03T14:25:43.215Z,19.42
2022-08-03T14:28:57.768Z,19.71
2022-08-03T14:32:10.362Z,19.21
2022-08-03T14:35:19.810Z,19.14
2022-08-03T14:38:34.459Z,19.03
2022-08-03T14:41:41.932Z,19.02
2022-08-03T14:44:49.760Z,18.69
2022-08-03T14:50:29.395Z,18.12
2022-08-03T14:51:24.564Z,18.71
2022-08-03T14:54:32.187Z,18.82
2022-08-03T14:57:39.360Z,19.46
2022-08-03T15:00:47.602Z,18.76
2022-08-03T15:03:54.983Z,18.24
2022-08-03T15:07:02.634Z,18.63
2022-08-03T15:10:10.786Z,18.70
2022-08-03T15:13:18.529Z,18.54
2022-08-03T15:16:29.841Z,18.42
2022-08-03T15:20:03.681Z,18.09
2022-08-03T15:23:04.858Z,18.47
2022-08-03T15:26:32.673Z,18.19
2022-08-03T15:30:08.920Z,18.30
2022-08-03T15:33:07.382Z,17.92
2022-08-03T15:36:14.905Z,17.04
2022-08-03T15:39:22.450Z,17.22
2022-08-03T15:42:30.794Z,16.92
2022-08-03T15:45:38.227Z,17.24
2022-08-03T15:48:45.507Z,17.30
2022-08-03T15:51:53.071Z,17.73
2022-08-03T15:55:00.351Z,16.68
2022-08-03T15:59:03.616Z,17.27
2022-08-03T16:01:35.060Z,16.91
2022-08-03T16:04:44.385Z,16.68
2022-08-03T16:08:03.063Z,16.31
2022-08-03T16:11:12.042Z,16.32
2022-08-03T16:14:35.632Z,16.36
2022-08-03T16:17:50.956Z,16.82
2022-08-03T16:21:00.243Z,17.02
2022-08-03T16:24:08.465Z,17.40
2022-08-03T16:27:37.088Z,18.54
2022-08-03T16:30:52.677Z,19.33
2022-08-03T16:34:00.948Z,19.97
2022-08-03T16:37:36.619Z,20.57
2022-08-03T16:40:36.346Z,20.52
2022-08-03T16:43:43.823Z,20.56
2022-08-03T16:46:51.202Z,20.48
2022-08-03T16:50:00.595Z,20.82
2022-08-03T16:53:16.438Z,20.72
2022-08-03T16:56:24.029Z,20.89
2022-08-03T16:59:36.282Z,20.62
2022-08-03T17:02:50.288Z,20.17
2022-08-03T17:05:59.649Z,20.18
2022-08-03T17:09:13.992Z,20.12
2022-08-03T17:12:21.496Z,19.84
2022-08-03T17:15:38.487Z,20.06
2022-08-03T17:19:01.992Z,20.06
2022-08-03T17:22:13.289Z,20.37
2022-08-03T17:25:39.932Z,20.44
2022-08-03T17:28:58.084Z,20.47
2022-08-03T17:32:09.761Z,20.04
2022-08-03T17:35:19.007Z,20.65
2022-08-03T17:38:28.959Z,20.54
2022-08-03T17:41:49.926Z,20.66
2022-08-03T17:44:58.694Z,21.21
2022-08-03T17:48:10.382Z,21.54
2022-08-03T17:51:35.024Z,21.95
2022-08-03T17:55:56.318Z,22.37
2022-08-03T17:58:38.684Z,22.77
2022-08-03T18:02:28.003Z,23.00
2022-08-03T18:06:10.418Z,23.85
2022-08-03T18:10:03.484Z,24.25
2022-08-03T18:12:51.850Z,25.21
2022-08-03T18:16:05.327Z,25.97
2022-08-03T18:19:13.739Z,26.88
2022-08-03T18:22:25.209Z,27.69
2022-08-03T18:25:45.431Z,28.43
2022-08-03T18:28:59.142Z,29.45
2022-08-03T18:32:16.718Z,30.22
2022-08-03T18:35:26.769Z,30.86
2022-08-03T18:38:55.552Z,31.45
2022-08-03T18:42:07.942Z,32.48
2022-08-03T18:45:57.351Z,32.83
2022-08-03T18:49:08.041Z,33.78
2022-08-03T18:52:19.076Z,34.16
2022-08-03T18:55:33.577Z,34.73
2022-08-03T18:58:51.451Z,35.07
2022-08-03T19:02:09.241Z,35.34
2022-08-03T19:05:21.746Z,35.71
2022-08-03T19:08:44.139Z,36.47
2022-08-03T19:12:11.051Z,36.75
2022-08-03T19:15:36.461Z,37.51
2022-08-03T19:18:48.414Z,37.91
2022-08-03T19:21:57.938Z,38.11
2022-08-03T19:25:07.163Z,38.64
2022-08-03T19:28:20.899Z,38.58
2022-08-03T19:31:40.556Z,39.60
2022-08-03T19:35:13.350Z,40.18
2022-08-03T19:38:29.510Z,40.82
2022-08-03T19:41:41.626Z,41.35
2022-08-03T19:44:57.197Z,41.96
2022-08-03T19:48:10.395Z,42.23
2022-08-03T19:51:18.280Z,42.51
2022-08-03T19:54:53.712Z,43.33
2022-08-03T19:58:03.848Z,44.28
2022-08-03T20:01:21.312Z,44.37
2022-08-03T20:04:29.214Z,44.68
2022-08-03T20:07:37.413Z,45.72
2022-08-03T20:10:49.230Z,45.96
2022-08-03T20:14:00.427Z,46.24
2022-08-03T20:17:09.322Z,46.29
2022-08-03T20:20:19.944Z,46.74
2022-08-03T20:23:37.413Z,46.37
2022-08-03T20:26:45.805Z,46.89
2022-08-03T20:30:06.429Z,47.37
2022-08-03T20:33:19.035Z,47.01
2022-08-03T20:36:27.776Z,47.67
2022-08-03T20:39:34.299Z,47.87
2022-08-03T20:42:41.688Z,48.06
2022-08-03T20:46:01.009Z,48.26
2022-08-03T20:49:19.934Z,48.79
2022-08-03T20:52:32.627Z,48.78
2022-08-03T20:55:47.954Z,48.63
2022-08-03T20:59:15.229Z,48.91
2022-08-03T21:02:29.766Z,49.38
2022-08-03T21:05:51.007Z,49.06
2022-08-03T21:09:06.638Z,49.15
2022-08-03T21:12:19.815Z,49.58
2022-08-03T21:16:11.353Z,49.77
2022-08-03T21:19:06.075Z,50.26
2022-08-03T21:22:18.021Z,50.32
2022-08-03T21:25:27.353Z,50.23
2022-08-03T21:28:35.650Z,50.22
2022-08-03T21:31:44.634Z,50.26
2022-08-03T21:34:53.437Z,50.89
2022-08-03T21:38:20.044Z,50.28
2022-08-03T21:41:28.673Z,50.67
2022-08-03T21:44:36.121Z,50.67
2022-08-03T21:47:45.140Z,51.26
2022-08-03T21:50:54.559Z,51.55
2022-08-03T21:54:04.636Z,51.79
2022-08-03T21:57:20.316Z,51.29
2022-08-03T22:00:27.795Z,51.47
2022-08-03T22:03:53.279Z,52.05
2022-08-03T22:07:02.265Z,52.16
2022-08-03T22:10:10.778Z,52.49
2022-08-03T22:13:42.897Z,52.22
2022-08-03T22:16:48.399Z,52.65
2022-08-03T22:19:55.463Z,53.12
2022-08-03T22:23:05.401Z,53.07
2022-08-03T22:26:17.096Z,53.21
2022-08-03T22:29:45.120Z,53.43
2022-08-03T22:32:56.658Z,53.65
2022-08-03T22:36:08.437Z,54.08
2022-08-03T22:39:22.804Z,54.13
2022-08-03T22:42:35.269Z,54.29
2022-08-03T22:46:08.930Z,53.87
2022-08-03T22:49:16.117Z,54.12
2022-08-03T22:52:22.640Z,54.64
2022-08-03T22:55:30.286Z,54.71
2022-08-03T22:58:38.009Z,54.31
2022-08-03T23:01:48.647Z,54.50
2022-08-03T23:04:58.940Z,54.52
2022-08-03T23:08:09.950Z,55.45
2022-08-03T23:11:19.398Z,55.35
2022-08-03T23:14:30.382Z,55.85
2022-08-03T23:17:57.824Z,56.43
2022-08-03T23:21:11.054Z,55.96
2022-08-03T23:24:29.076Z,56.59
2022-08-03T23:27:41.486Z,56.77
2022-08-03T23:30:50.981Z,56.88
2022-08-03T23:34:17.281Z,57.01
2022-08-03T23:37:25.889Z,57.58
2022-08-03T23:40:34.606Z,57.79
2022-08-03T23:43:51.807Z,57.45
2022-08-03T23:47:01.463Z,58.03
2022-08-03T23:50:09.879Z,57.85
2022-08-03T23:53:30.170Z,58.30
2022-08-03T23:56:47.117Z,58.38
